Time;durP1;ratioP1;P1;durP2;ratioP2;P2;SDS_P1;SDS_P2;PMS_P1;PMS_P2;Temp;Humidity;BMP_temperature;BMP_pressure;BME280_temperature;BME280_humidity;BME280_pressure;Samples;Min_cycle;Max_cycle;Signal;HPM_P1;HPM_P2
2020/12/22 00:00:37;;;;;;;1.55;0.80;;;;;;;;;;5066950;28;20070;-52
2020/12/22 00:03:03;;;;;;;0.60;0.60;;;;;;;;;;5066375;28;20517;-52
2020/12/22 00:05:30;;;;;;;0.90;0.70;;;;;;;;;;5066451;28;20043;-52
2020/12/22 00:07:56;;;;;;;0.90;0.80;;;;;;;;;;5066508;28;20424;-51
2020/12/22 00:10:22;;;;;;;1.10;0.68;;;;;;;;;;5067018;28;20474;-48
2020/12/22 00:12:48;;;;;;;0.65;0.60;;;;;;;;;;5066868;28;20024;-52
2020/12/22 00:15:14;;;;;;;1.05;0.57;;;;;;;;;;5068071;28;20029;-51
2020/12/22 00:17:44;;;;;;;1.48;0.60;;;;;;;;;;5065204;28;20024;-52
2020/12/22 00:20:11;;;;;;;0.70;0.70;;;;;;;;;;5067404;28;20035;-52
2020/12/22 00:22:37;;;;;;;0.73;0.65;;;;;;;;;;5065262;28;20052;-52
2020/12/22 00:25:03;;;;;;;1.00;0.70;;;;;;;;;;5067211;28;20032;-52
2020/12/22 00:27:32;;;;;;;0.90;0.80;;;;;;;;;;5065829;28;20024;-50
2020/12/22 00:29:59;;;;;;;1.13;0.70;;;;;;;;;;5066880;28;20036;-52
2020/12/22 00:32:25;;;;;;;1.33;0.80;;;;;;;;;;5065508;28;20140;-52
2020/12/22 00:34:51;;;;;;;0.85;0.73;;;;;;;;;;5066151;28;20123;-52
2020/12/22 00:37:16;;;;;;;1.90;0.55;;;;;;;;;;5066701;28;20027;-53
2020/12/22 00:39:42;;;;;;;0.95;0.60;;;;;;;;;;5066586;28;20532;-52
2020/12/22 00:42:08;;;;;;;1.42;0.80;;;;;;;;;;5066654;28;20043;-52
2020/12/22 00:44:35;;;;;;;1.05;0.52;;;;;;;;;;5065812;28;20060;-50
2020/12/22 00:47:01;;;;;;;0.60;0.50;;;;;;;;;;5066734;28;20024;-51
2020/12/22 00:49:27;;;;;;;0.85;0.80;;;;;;;;;;5066438;28;20063;-52
2020/12/22 00:51:57;;;;;;;0.60;0.45;;;;;;;;;;5066233;28;20068;-52
2020/12/22 00:54:25;;;;;;;1.02;0.63;;;;;;;;;;5065861;28;20086;-49
2020/12/22 00:56:52;;;;;;;0.60;0.60;;;;;;;;;;5066919;28;20364;-51
2020/12/22 00:59:18;;;;;;;1.20;0.80;;;;;;;;;;5066298;28;20036;-50
2020/12/22 01:01:45;;;;;;;0.80;0.80;;;;;;;;;;5064242;28;20040;-53
2020/12/22 01:04:12;;;;;;;1.73;0.90;;;;;;;;;;5066249;28;20029;-48
2020/12/22 01:06:41;;;;;;;0.88;0.80;;;;;;;;;;5066213;28;20044;-53
2020/12/22 01:09:08;;;;;;;1.25;0.90;;;;;;;;;;5066272;28;20037;-49
2020/12/22 01:11:37;;;;;;;1.17;1.08;;;;;;;;;;5065177;28;20095;-50
2020/12/22 01:14:04;;;;;;;0.98;0.90;;;;;;;;;;5065008;28;20082;-50
2020/12/22 01:16:30;;;;;;;1.40;1.00;;;;;;;;;;5066317;28;20036;-50
2020/12/22 01:18:57;;;;;;;1.38;0.82;;;;;;;;;;5065868;28;20043;-53
2020/12/22 01:21:23;;;;;;;1.10;0.93;;;;;;;;;;5066852;28;20024;-52
2020/12/22 01:23:49;;;;;;;1.02;0.68;;;;;;;;;;5065365;28;20119;-52
2020/12/22 01:26:19;;;;;;;0.70;0.70;;;;;;;;;;5064976;28;20360;-53
2020/12/22 01:28:45;;;;;;;0.77;0.77;;;;;;;;;;5065524;28;20150;-52
2020/12/22 01:31:11;;;;;;;0.85;0.60;;;;;;;;;;5065622;28;20513;-49
2020/12/22 01:33:37;;;;;;;1.05;0.60;;;;;;;;;;5063529;28;20032;-48
2020/12/22 01:36:03;;;;;;;0.75;0.73;;;;;;;;;;5065633;28;20024;-50
2020/12/22 01:38:29;;;;;;;0.43;0.43;;;;;;;;;;5065751;28;20043;-51
2020/12/22 01:40:55;;;;;;;0.85;0.70;;;;;;;;;;5065316;28;20028;-51
2020/12/22 01:43:21;;;;;;;0.63;0.63;;;;;;;;;;5065296;28;20075;-52
2020/12/22 01:45:47;;;;;;;1.00;0.90;;;;;;;;;;5065265;28;20396;-50
2020/12/22 01:48:13;;;;;;;1.27;1.05;;;;;;;;;;5064710;28;20047;-52
2020/12/22 01:50:39;;;;;;;1.38;1.10;;;;;;;;;;5065210;28;20027;-50
2020/12/22 01:53:06;;;;;;;1.52;1.10;;;;;;;;;;5064558;28;20037;-52
2020/12/22 01:55:33;;;;;;;0.90;0.88;;;;;;;;;;5064772;28;20425;-51
2020/12/22 01:57:59;;;;;;;0.80;0.77;;;;;;;;;;5065030;28;20039;-50
2020/12/22 02:00:26;;;;;;;1.77;0.77;;;;;;;;;;5065179;28;20025;-50
2020/12/22 02:02:53;;;;;;;1.13;0.68;;;;;;;;;;5063763;28;20036;-52
2020/12/22 02:05:20;;;;;;;0.82;0.73;;;;;;;;;;5064884;28;20432;-51
2020/12/22 02:07:46;;;;;;;0.68;0.65;;;;;;;;;;5064175;28;20024;-50
2020/12/22 02:10:12;;;;;;;1.02;0.70;;;;;;;;;;5063739;28;20017;-52
2020/12/22 02:12:40;;;;;;;0.82;0.80;;;;;;;;;;5062835;28;20132;-48
2020/12/22 02:15:06;;;;;;;1.05;0.90;;;;;;;;;;5061811;28;20013;-50
2020/12/22 02:17:34;;;;;;;1.08;0.98;;;;;;;;;;5064540;28;20339;-50
2020/12/22 02:20:02;;;;;;;0.55;0.55;;;;;;;;;;5063944;28;20025;-52
2020/12/22 02:22:27;;;;;;;0.93;0.82;;;;;;;;;;5062096;28;20032;-51
2020/12/22 02:24:53;;;;;;;0.63;0.60;;;;;;;;;;5064517;28;20024;-53
2020/12/22 02:27:19;;;;;;;1.08;0.60;;;;;;;;;;5063936;28;20033;-51
2020/12/22 02:29:46;;;;;;;0.93;0.70;;;;;;;;;;5063660;28;20029;-49
2020/12/22 02:32:12;;;;;;;0.63;0.57;;;;;;;;;;5062722;28;20074;-50
2020/12/22 02:34:38;;;;;;;1.27;0.90;;;;;;;;;;5062875;28;20036;-53
2020/12/22 02:37:05;;;;;;;0.65;0.65;;;;;;;;;;5064115;28;20025;-52
2020/12/22 02:39:30;;;;;;;1.50;0.98;;;;;;;;;;5063908;28;20025;-52
2020/12/22 02:41:56;;;;;;;0.80;0.70;;;;;;;;;;5063642;28;20107;-52
2020/12/22 02:44:22;;;;;;;0.93;0.73;;;;;;;;;;5063710;28;20025;-51
2020/12/22 02:46:48;;;;;;;1.00;0.80;;;;;;;;;;5063386;28;20044;-49
2020/12/22 02:49:15;;;;;;;0.90;0.68;;;;;;;;;;5062356;28;20077;-50
2020/12/22 02:51:41;;;;;;;0.63;0.63;;;;;;;;;;5062364;28;20028;-53
2020/12/22 02:54:07;;;;;;;1.70;1.00;;;;;;;;;;5062247;28;20070;-52
2020/12/22 02:56:33;;;;;;;2.20;1.17;;;;;;;;;;5063262;28;20033;-51
2020/12/22 02:58:59;;;;;;;1.67;0.98;;;;;;;;;;5063571;28;20035;-52
2020/12/22 03:01:25;;;;;;;1.30;0.88;;;;;;;;;;5040907;28;640774;-48
2020/12/22 03:03:52;;;;;;;1.10;0.90;;;;;;;;;;5063923;28;20133;-52
2020/12/22 03:06:18;;;;;;;0.90;0.70;;;;;;;;;;5064542;28;20097;-50
2020/12/22 03:08:45;;;;;;;1.00;0.80;;;;;;;;;;5064161;28;20107;-52
2020/12/22 03:11:12;;;;;;;1.13;0.80;;;;;;;;;;5063651;28;20033;-49
2020/12/22 03:13:39;;;;;;;1.30;1.00;;;;;;;;;;5063443;28;20036;-49
2020/12/22 03:16:06;;;;;;;1.20;0.70;;;;;;;;;;5064117;28;20036;-51
2020/12/22 03:18:32;;;;;;;1.05;0.77;;;;;;;;;;5064384;28;20421;-50
2020/12/22 03:20:58;;;;;;;1.52;1.10;;;;;;;;;;5064159;28;20468;-51
2020/12/22 03:23:23;;;;;;;1.13;0.80;;;;;;;;;;5064091;28;20112;-49
2020/12/22 03:25:49;;;;;;;0.90;0.80;;;;;;;;;;5064222;28;20033;-49
2020/12/22 03:28:15;;;;;;;0.73;0.70;;;;;;;;;;5064297;28;20028;-49
2020/12/22 03:30:41;;;;;;;1.08;0.88;;;;;;;;;;5063630;28;20111;-52
2020/12/22 03:33:07;;;;;;;2.42;0.88;;;;;;;;;;5062355;28;20052;-52
2020/12/22 03:35:34;;;;;;;1.05;0.90;;;;;;;;;;5064224;28;20082;-53
2020/12/22 03:38:02;;;;;;;1.17;0.93;;;;;;;;;;5064023;28;20024;-52
2020/12/22 03:40:29;;;;;;;1.50;0.80;;;;;;;;;;5063042;28;20050;-50
2020/12/22 03:42:55;;;;;;;1.02;0.93;;;;;;;;;;5064055;28;20116;-52
2020/12/22 03:45:21;;;;;;;1.23;1.00;;;;;;;;;;5064790;28;20055;-51
2020/12/22 03:47:47;;;;;;;1.75;1.08;;;;;;;;;;5063696;28;20485;-53
2020/12/22 03:50:13;;;;;;;1.52;0.93;;;;;;;;;;5063427;28;20028;-50
2020/12/22 03:52:40;;;;;;;1.08;0.88;;;;;;;;;;5063500;28;20558;-49
2020/12/22 03:55:07;;;;;;;1.20;0.90;;;;;;;;;;5064138;28;20098;-48
2020/12/22 03:57:34;;;;;;;1.75;1.13;;;;;;;;;;5063843;28;20429;-52
2020/12/22 04:00:00;;;;;;;1.85;1.30;;;;;;;;;;5064091;28;20103;-51
2020/12/22 04:02:26;;;;;;;1.63;1.10;;;;;;;;;;5062368;28;20032;-51
2020/12/22 04:04:52;;;;;;;1.80;1.17;;;;;;;;;;5065823;28;20516;-52
2020/12/22 04:07:18;;;;;;;1.38;1.00;;;;;;;;;;5065373;28;20025;-51
2020/12/22 04:09:44;;;;;;;1.13;1.02;;;;;;;;;;5064626;28;20037;-52
2020/12/22 04:12:10;;;;;;;2.08;1.20;;;;;;;;;;5067294;28;20026;-51
2020/12/22 04:14:36;;;;;;;5.32;1.63;;;;;;;;;;5068814;28;20028;-51
2020/12/22 04:17:02;;;;;;;1.40;1.27;;;;;;;;;;5068688;28;20020;-51
2020/12/22 04:19:29;;;;;;;1.48;1.10;;;;;;;;;;5067765;28;20029;-49
2020/12/22 04:21:55;;;;;;;1.00;1.00;;;;;;;;;;5068658;28;20178;-50
2020/12/22 04:24:21;;;;;;;1.95;1.25;;;;;;;;;;5069554;28;20035;-52
2020/12/22 04:26:47;;;;;;;1.60;1.08;;;;;;;;;;5068751;28;20366;-48
2020/12/22 04:29:13;;;;;;;1.92;1.40;;;;;;;;;;5068559;28;20040;-50
2020/12/22 04:31:39;;;;;;;1.15;1.05;;;;;;;;;;5066801;28;20046;-49
2020/12/22 04:34:05;;;;;;;1.27;1.10;;;;;;;;;;5068620;28;20704;-53
2020/12/22 04:36:32;;;;;;;2.17;1.23;;;;;;;;;;5068640;28;20096;-52
2020/12/22 04:38:58;;;;;;;1.50;1.17;;;;;;;;;;5068272;28;20488;-49
2020/12/22 04:41:24;;;;;;;2.28;1.20;;;;;;;;;;5066962;28;20090;-49
2020/12/22 04:43:51;;;;;;;2.45;1.50;;;;;;;;;;5067861;28;20115;-48
2020/12/22 04:46:18;;;;;;;2.22;1.38;;;;;;;;;;5068016;28;20028;-49
2020/12/22 04:48:47;;;;;;;1.25;1.08;;;;;;;;;;5068286;28;20032;-49
2020/12/22 04:51:14;;;;;;;1.85;1.20;;;;;;;;;;5065891;28;20029;-48
2020/12/22 04:53:40;;;;;;;1.92;1.33;;;;;;;;;;5068044;28;20030;-52
2020/12/22 04:56:07;;;;;;;1.88;1.30;;;;;;;;;;5068329;28;20025;-49
2020/12/22 04:58:33;;;;;;;1.90;1.40;;;;;;;;;;5067674;28;20494;-51
2020/12/22 05:00:59;;;;;;;1.85;1.20;;;;;;;;;;5066894;28;20044;-51
2020/12/22 05:03:26;;;;;;;2.25;1.15;;;;;;;;;;5068045;28;20052;-51
2020/12/22 05:05:52;;;;;;;2.10;1.42;;;;;;;;;;5068299;28;20100;-48
2020/12/22 05:08:18;;;;;;;2.17;1.52;;;;;;;;;;5067024;28;20039;-53
2020/12/22 05:10:45;;;;;;;2.00;1.60;;;;;;;;;;5066356;28;20060;-49
2020/12/22 05:13:12;;;;;;;2.33;1.33;;;;;;;;;;5067124;28;20103;-50
2020/12/22 05:15:44;;;;;;;2.03;1.40;;;;;;;;;;5065873;28;20055;-51
2020/12/22 05:18:11;;;;;;;1.55;1.20;;;;;;;;;;5065520;28;20027;-49
2020/12/22 05:20:41;;;;;;;1.60;1.30;;;;;;;;;;5065759;28;20051;-50
2020/12/22 05:23:14;;;;;;;0.88;0.82;;;;;;;;;;5062412;28;20481;-52
2020/12/22 05:25:41;;;;;;;2.05;1.17;;;;;;;;;;5065825;28;20032;-48
2020/12/22 05:28:08;;;;;;;5.10;1.83;;;;;;;;;;5064030;28;20017;-48
2020/12/22 05:30:36;;;;;;;5.45;2.08;;;;;;;;;;5064535;28;20090;-50
2020/12/22 05:33:03;;;;;;;4.28;2.17;;;;;;;;;;5045959;28;20040;-50
2020/12/22 05:35:34;;;;;;;6.47;2.30;;;;;;;;;;5045734;28;20028;-50
2020/12/22 05:38:01;;;;;;;4.53;2.50;;;;;;;;;;5049082;28;20020;-49
2020/12/22 05:40:27;;;;;;;5.35;2.30;;;;;;;;;;5065506;28;20028;-49
2020/12/22 05:42:54;;;;;;;15.38;4.93;;;;;;;;;;5065813;28;20035;-51
2020/12/22 05:45:21;;;;;;;10.85;4.25;;;;;;;;;;5065602;28;20028;-52
2020/12/22 05:47:47;;;;;;;13.30;4.47;;;;;;;;;;5064532;28;20025;-53
2020/12/22 05:50:13;;;;;;;10.15;3.70;;;;;;;;;;5065769;28;20454;-53
2020/12/22 05:52:41;;;;;;;7.80;3.38;;;;;;;;;;5065107;28;20032;-51
2020/12/22 05:55:07;;;;;;;6.22;2.47;;;;;;;;;;5065269;28;20020;-51
2020/12/22 05:57:33;;;;;;;4.10;2.42;;;;;;;;;;5063996;28;20032;-50
2020/12/22 06:00:12;;;;;;;3.72;2.17;;;;;;;;;;5065384;28;20036;-51
2020/12/22 06:02:40;;;;;;;3.00;1.90;;;;;;;;;;5064805;28;20040;-49
2020/12/22 06:05:06;;;;;;;3.13;1.95;;;;;;;;;;5065295;28;20524;-52
2020/12/22 06:07:32;;;;;;;4.68;2.30;;;;;;;;;;5064324;28;20036;-50
2020/12/22 06:09:58;;;;;;;5.15;2.97;;;;;;;;;;5064400;28;20429;-48
2020/12/22 06:12:25;;;;;;;2.42;1.70;;;;;;;;;;5065473;28;20115;-50
2020/12/22 06:14:52;;;;;;;3.28;1.77;;;;;;;;;;5064205;28;20440;-51
2020/12/22 06:17:19;;;;;;;2.05;1.35;;;;;;;;;;5064366;28;20271;-49
2020/12/22 06:19:47;;;;;;;1.58;1.20;;;;;;;;;;5064080;28;20027;-51
2020/12/22 06:22:14;;;;;;;2.63;1.50;;;;;;;;;;5064468;28;20043;-48
2020/12/22 06:24:40;;;;;;;2.13;1.42;;;;;;;;;;5063075;28;20038;-51
2020/12/22 06:27:13;;;;;;;4.10;1.83;;;;;;;;;;5064985;28;20029;-49
2020/12/22 06:29:43;;;;;;;4.35;2.50;;;;;;;;;;5064018;28;20506;-50
2020/12/22 06:32:18;;;;;;;4.80;2.53;;;;;;;;;;5064258;28;20035;-48
2020/12/22 06:34:44;;;;;;;3.70;2.20;;;;;;;;;;5063078;28;20029;-53
2020/12/22 06:37:11;;;;;;;3.88;2.55;;;;;;;;;;5064859;28;20024;-53
2020/12/22 06:39:44;;;;;;;2.70;2.00;;;;;;;;;;5064189;28;20106;-53
2020/12/22 06:42:11;;;;;;;3.53;2.22;;;;;;;;;;5064789;28;20032;-51
2020/12/22 06:44:37;;;;;;;2.15;1.70;;;;;;;;;;5063411;28;20032;-49
2020/12/22 06:47:05;;;;;;;2.47;1.70;;;;;;;;;;5064786;28;20401;-51
2020/12/22 06:49:46;;;;;;;1.90;1.30;;;;;;;;;;5064373;28;20506;-52
2020/12/22 06:52:30;;;;;;;2.33;1.73;;;;;;;;;;5063709;28;20155;-49
2020/12/22 06:54:56;;;;;;;3.75;1.90;;;;;;;;;;5063635;28;20670;-49
2020/12/22 06:57:41;;;;;;;2.33;1.40;;;;;;;;;;5064976;28;20483;-52
2020/12/22 07:00:08;;;;;;;3.20;1.80;;;;;;;;;;5064112;28;20021;-49
2020/12/22 07:02:37;;;;;;;2.60;1.52;;;;;;;;;;5063926;28;20051;-51
2020/12/22 07:05:05;;;;;;;3.97;1.63;;;;;;;;;;5063441;28;20036;-52
2020/12/22 07:07:54;;;;;;;2.92;1.73;;;;;;;;;;5064342;28;20048;-51
2020/12/22 07:10:20;;;;;;;1.23;0.90;;;;;;;;;;5064137;28;20074;-52
2020/12/22 07:12:47;;;;;;;2.08;1.55;;;;;;;;;;5063057;28;20035;-50
2020/12/22 07:15:13;;;;;;;3.70;1.70;;;;;;;;;;5064131;28;20570;-51
2020/12/22 07:17:40;;;;;;;2.47;1.70;;;;;;;;;;5063961;28;20040;-51
2020/12/22 07:20:06;;;;;;;4.70;2.55;;;;;;;;;;5064244;28;20028;-52
2020/12/22 07:22:32;;;;;;;5.90;3.40;;;;;;;;;;5061292;28;20055;-52
2020/12/22 07:25:00;;;;;;;6.07;2.92;;;;;;;;;;5065926;28;20394;-48
2020/12/22 07:27:26;;;;;;;7.05;3.22;;;;;;;;;;5065023;28;20467;-51
2020/12/22 07:29:52;;;;;;;5.38;2.40;;;;;;;;;;5060611;28;20039;-52
2020/12/22 07:32:19;;;;;;;3.67;1.90;;;;;;;;;;5064634;28;20074;-53
2020/12/22 07:34:45;;;;;;;3.92;1.80;;;;;;;;;;5065076;28;20036;-52
2020/12/22 07:37:12;;;;;;;4.00;2.25;;;;;;;;;;5063245;28;20032;-51
2020/12/22 07:39:39;;;;;;;1.92;1.63;;;;;;;;;;5064387;28;20017;-51
2020/12/22 07:42:11;;;;;;;3.15;2.10;;;;;;;;;;5062901;28;20033;-50
2020/12/22 07:44:37;;;;;;;5.30;2.60;;;;;;;;;;5063081;28;20032;-50
2020/12/22 07:47:04;;;;;;;4.80;2.60;;;;;;;;;;5067627;28;20024;-49
2020/12/22 07:49:30;;;;;;;4.32;2.20;;;;;;;;;;5069206;28;20027;-51
2020/12/22 07:51:56;;;;;;;4.72;2.50;;;;;;;;;;5069089;28;20035;-51
2020/12/22 07:54:25;;;;;;;5.45;2.83;;;;;;;;;;5067558;28;20022;-50
2020/12/22 07:56:52;;;;;;;3.58;2.40;;;;;;;;;;5068549;28;20130;-47
2020/12/22 07:59:18;;;;;;;3.72;2.40;;;;;;;;;;5068199;28;20028;-50
2020/12/22 08:01:45;;;;;;;4.32;2.20;;;;;;;;;;5067340;28;20398;-51
2020/12/22 08:04:11;;;;;;;3.55;2.25;;;;;;;;;;5066991;28;20060;-51
2020/12/22 08:06:38;;;;;;;4.95;2.42;;;;;;;;;;5061574;28;20099;-51
2020/12/22 08:09:04;;;;;;;3.00;2.00;;;;;;;;;;5048845;28;20032;-50
2020/12/22 08:11:31;;;;;;;2.95;1.92;;;;;;;;;;5061757;28;20029;-49
2020/12/22 08:13:58;;;;;;;2.67;2.08;;;;;;;;;;5050934;28;20107;-51
2020/12/22 08:16:24;;;;;;;3.08;1.90;;;;;;;;;;5067780;28;20029;-52
2020/12/22 08:18:50;;;;;;;3.75;2.05;;;;;;;;;;5067422;28;20025;-51
2020/12/22 08:21:18;;;;;;;2.78;1.90;;;;;;;;;;5065538;28;20024;-49
2020/12/22 08:23:45;;;;;;;2.40;1.73;;;;;;;;;;5066234;28;20036;-50
2020/12/22 08:26:12;;;;;;;2.90;1.98;;;;;;;;;;5066471;28;20039;-52
2020/12/22 08:28:38;;;;;;;4.97;2.33;;;;;;;;;;5066698;28;20035;-49
2020/12/22 08:31:09;;;;;;;2.58;1.80;;;;;;;;;;5066297;28;20051;-47
2020/12/22 08:33:36;;;;;;;2.72;1.95;;;;;;;;;;5067927;28;20052;-51
2020/12/22 08:36:02;;;;;;;2.85;1.85;;;;;;;;;;5067815;28;20025;-49
2020/12/22 08:38:31;;;;;;;2.47;1.80;;;;;;;;;;5065381;28;20028;-48
2020/12/22 08:41:12;;;;;;;4.40;2.55;;;;;;;;;;5061606;28;20051;-51
2020/12/22 08:43:46;;;;;;;10.20;3.67;;;;;;;;;;5063356;28;20060;-48
2020/12/22 08:46:13;;;;;;;7.22;3.60;;;;;;;;;;5046121;28;20751;-48
2020/12/22 08:48:39;;;;;;;5.07;2.55;;;;;;;;;;5052671;28;20532;-50
2020/12/22 08:51:06;;;;;;;3.42;1.90;;;;;;;;;;5066645;28;20037;-50
2020/12/22 08:53:32;;;;;;;4.07;2.22;;;;;;;;;;5066033;28;20313;-48
2020/12/22 08:56:11;;;;;;;3.15;1.70;;;;;;;;;;5065042;28;20025;-51
2020/12/22 08:58:53;;;;;;;5.80;2.92;;;;;;;;;;5066552;28;20464;-48
2020/12/22 09:01:21;;;;;;;5.63;3.65;;;;;;;;;;5066014;28;20555;-51
2020/12/22 09:03:51;;;;;;;5.35;2.90;;;;;;;;;;5066354;28;20028;-47
2020/12/22 09:06:17;;;;;;;3.60;2.60;;;;;;;;;;5066254;28;20098;-49
2020/12/22 09:08:46;;;;;;;4.22;2.58;;;;;;;;;;5066315;28;20473;-49
2020/12/22 09:11:18;;;;;;;3.30;2.30;;;;;;;;;;5065640;28;20058;-51
2020/12/22 09:13:45;;;;;;;3.03;2.15;;;;;;;;;;5065914;28;20522;-49
2020/12/22 09:16:13;;;;;;;2.60;1.90;;;;;;;;;;5066255;28;20025;-50
2020/12/22 09:18:40;;;;;;;4.00;2.17;;;;;;;;;;5066783;28;20390;-52
2020/12/22 09:21:07;;;;;;;2.67;1.88;;;;;;;;;;5066838;28;20413;-50
2020/12/22 09:23:43;;;;;;;3.05;1.80;;;;;;;;;;5065855;28;20029;-50
2020/12/22 09:26:09;;;;;;;2.40;1.83;;;;;;;;;;5067033;28;20631;-51
2020/12/22 09:28:35;;;;;;;3.10;1.67;;;;;;;;;;5064901;28;20056;-50
2020/12/22 09:31:01;;;;;;;2.42;1.58;;;;;;;;;;5065565;28;20111;-51
2020/12/22 09:33:28;;;;;;;2.35;1.83;;;;;;;;;;5066031;28;20017;-49
2020/12/22 09:35:54;;;;;;;2.17;1.70;;;;;;;;;;5045693;28;20029;-51
2020/12/22 09:38:20;;;;;;;2.95;1.60;;;;;;;;;;5045868;28;20047;-52
2020/12/22 09:40:46;;;;;;;2.92;1.90;;;;;;;;;;5045715;28;20487;-51
2020/12/22 09:43:13;;;;;;;2.15;1.50;;;;;;;;;;5045510;28;20098;-51
2020/12/22 09:45:40;;;;;;;2.83;1.65;;;;;;;;;;5046060;28;20040;-49
2020/12/22 09:48:06;;;;;;;2.05;1.48;;;;;;;;;;5046217;28;20104;-49
2020/12/22 09:50:33;;;;;;;2.97;1.50;;;;;;;;;;5045660;28;20108;-51
2020/12/22 09:52:59;;;;;;;2.42;1.33;;;;;;;;;;5045430;28;20557;-52
2020/12/22 09:55:25;;;;;;;2.10;1.20;;;;;;;;;;5045448;28;20021;-53
2020/12/22 09:57:51;;;;;;;1.10;1.00;;;;;;;;;;5045013;28;20028;-48
2020/12/22 10:00:17;;;;;;;1.45;1.20;;;;;;;;;;5045388;28;20029;-48
2020/12/22 10:02:44;;;;;;;1.10;0.90;;;;;;;;;;5045209;28;20064;-50
2020/12/22 10:05:10;;;;;;;0.95;0.80;;;;;;;;;;5045509;28;20028;-52
2020/12/22 10:07:36;;;;;;;1.13;0.90;;;;;;;;;;5045475;28;20029;-50
2020/12/22 10:10:02;;;;;;;1.00;0.90;;;;;;;;;;5044242;28;20491;-48
2020/12/22 10:12:28;;;;;;;1.42;1.05;;;;;;;;;;5043977;28;20245;-49
2020/12/22 10:14:54;;;;;;;1.35;1.10;;;;;;;;;;5045392;28;20029;-52
2020/12/22 10:17:20;;;;;;;1.17;0.73;;;;;;;;;;5044153;28;20430;-51
2020/12/22 10:19:46;;;;;;;0.98;0.80;;;;;;;;;;5044617;28;20028;-51
2020/12/22 10:22:12;;;;;;;0.63;0.60;;;;;;;;;;5044619;28;20031;-48
2020/12/22 10:24:38;;;;;;;1.33;0.82;;;;;;;;;;5045469;28;20106;-50
2020/12/22 10:27:05;;;;;;;1.02;0.70;;;;;;;;;;5043317;28;20043;-52
2020/12/22 10:29:32;;;;;;;0.88;0.70;;;;;;;;;;5044358;28;20033;-51
2020/12/22 10:31:58;;;;;;;0.50;0.50;;;;;;;;;;5043170;28;20021;-49
2020/12/22 10:34:25;;;;;;;0.75;0.60;;;;;;;;;;5044861;28;20027;-49
2020/12/22 10:36:52;;;;;;;1.13;1.00;;;;;;;;;;5044979;28;20033;-51
2020/12/22 10:39:19;;;;;;;1.00;0.75;;;;;;;;;;5044736;28;20025;-47
2020/12/22 10:41:45;;;;;;;1.08;0.90;;;;;;;;;;5044206;28;20044;-51
2020/12/22 10:44:12;;;;;;;1.00;0.68;;;;;;;;;;5044873;28;20135;-50
2020/12/22 10:46:38;;;;;;;0.73;0.63;;;;;;;;;;5044449;28;20025;-49
2020/12/22 10:49:04;;;;;;;0.70;0.70;;;;;;;;;;5040378;28;20036;-49
2020/12/22 10:51:31;;;;;;;0.98;0.82;;;;;;;;;;5044273;28;20449;-51
2020/12/22 10:53:57;;;;;;;0.55;0.55;;;;;;;;;;5044184;28;20052;-51
2020/12/22 10:56:24;;;;;;;1.00;0.77;;;;;;;;;;5044391;28;20064;-51
2020/12/22 10:58:51;;;;;;;1.52;0.90;;;;;;;;;;5043996;28;20684;-52
2020/12/22 11:01:17;;;;;;;1.67;1.30;;;;;;;;;;5039685;28;20108;-52
2020/12/22 11:03:43;;;;;;;1.55;1.17;;;;;;;;;;5045363;28;20052;-52
2020/12/22 11:06:37;;;;;;;1.52;0.93;;;;;;;;;;5046432;28;20031;-51
2020/12/22 11:09:01;;;;;;;0.95;0.82;;;;;;;;;;5045608;28;20813;-49
2020/12/22 11:11:27;;;;;;;0.75;0.73;;;;;;;;;;5045083;28;20029;-51
2020/12/22 11:13:53;;;;;;;1.55;0.98;;;;;;;;;;5045773;28;20502;-49
2020/12/22 11:16:28;;;;;;;1.45;0.93;;;;;;;;;;5042925;28;20056;-49
2020/12/22 11:18:54;;;;;;;2.13;1.20;;;;;;;;;;5042630;28;20029;-48
2020/12/22 11:21:23;;;;;;;1.23;0.80;;;;;;;;;;5048870;28;20505;-50
2020/12/22 11:23:49;;;;;;;1.60;0.88;;;;;;;;;;5049577;28;20436;-50
2020/12/22 11:26:16;;;;;;;1.00;0.80;;;;;;;;;;5049952;28;20064;-49
2020/12/22 11:28:42;;;;;;;1.52;0.80;;;;;;;;;;5048372;28;20037;-51
2020/12/22 11:31:08;;;;;;;1.02;0.90;;;;;;;;;;5049992;28;20030;-47
2020/12/22 11:33:34;;;;;;;0.90;0.70;;;;;;;;;;5049392;28;20021;-49
2020/12/22 11:36:01;;;;;;;1.38;1.10;;;;;;;;;;5049721;28;20024;-50
2020/12/22 11:38:27;;;;;;;1.55;0.95;;;;;;;;;;5049464;28;20453;-48
2020/12/22 11:40:54;;;;;;;1.02;0.80;;;;;;;;;;5048824;28;20390;-50
2020/12/22 11:43:20;;;;;;;1.33;0.93;;;;;;;;;;5045641;28;20037;-53
2020/12/22 11:45:46;;;;;;;2.13;1.13;;;;;;;;;;5047665;28;20033;-53
2020/12/22 11:48:12;;;;;;;2.47;1.48;;;;;;;;;;5047483;28;20074;-48
2020/12/22 11:50:38;;;;;;;1.85;1.40;;;;;;;;;;5049833;28;20561;-52
2020/12/22 11:53:04;;;;;;;1.75;1.20;;;;;;;;;;5049148;28;20609;-52
2020/12/22 11:55:30;;;;;;;1.40;1.20;;;;;;;;;;5048918;28;20036;-52
2020/12/22 11:57:56;;;;;;;3.22;1.50;;;;;;;;;;5048450;28;20040;-49
2020/12/22 12:00:22;;;;;;;2.25;1.42;;;;;;;;;;5049051;28;20622;-52
2020/12/22 12:02:48;;;;;;;3.58;2.22;;;;;;;;;;5046537;28;20110;-51
2020/12/22 12:05:14;;;;;;;4.07;2.38;;;;;;;;;;5047576;28;20032;-52
2020/12/22 12:07:41;;;;;;;2.92;1.83;;;;;;;;;;5047432;28;20088;-51
2020/12/22 12:10:07;;;;;;;2.38;1.58;;;;;;;;;;5041061;28;20029;-52
2020/12/22 12:12:34;;;;;;;2.42;1.60;;;;;;;;;;5044348;28;20043;-50
2020/12/22 12:15:01;;;;;;;2.65;1.50;;;;;;;;;;5047293;28;20452;-48
2020/12/22 12:17:28;;;;;;;2.00;1.38;;;;;;;;;;5045916;28;20024;-49
2020/12/22 12:19:54;;;;;;;2.45;1.63;;;;;;;;;;5044766;28;20025;-50
2020/12/22 12:22:20;;;;;;;1.90;1.30;;;;;;;;;;5045430;28;20028;-49
2020/12/22 12:24:47;;;;;;;1.27;1.15;;;;;;;;;;5044658;28;20470;-53
2020/12/22 12:27:14;;;;;;;1.63;1.05;;;;;;;;;;5044762;28;20395;-51
2020/12/22 12:29:40;;;;;;;1.38;0.98;;;;;;;;;;5045406;28;20036;-52
2020/12/22 12:32:07;;;;;;;1.40;1.02;;;;;;;;;;5043157;28;20037;-50
2020/12/22 12:34:33;;;;;;;2.30;1.13;;;;;;;;;;5042958;28;20033;-53
2020/12/22 12:37:01;;;;;;;1.40;0.90;;;;;;;;;;5045496;28;20079;-50
2020/12/22 12:39:27;;;;;;;1.42;1.10;;;;;;;;;;5046337;28;20052;-50
2020/12/22 12:41:53;;;;;;;1.42;0.98;;;;;;;;;;5045624;28;20076;-51
2020/12/22 12:44:19;;;;;;;1.60;1.02;;;;;;;;;;5044397;28;20032;-51
2020/12/22 12:46:45;;;;;;;1.40;1.05;;;;;;;;;;5045351;28;20033;-53
2020/12/22 12:49:13;;;;;;;1.35;1.00;;;;;;;;;;5045773;28;20021;-50
2020/12/22 12:51:45;;;;;;;1.30;1.00;;;;;;;;;;5044992;28;20037;-52
2020/12/22 12:54:11;;;;;;;0.80;0.75;;;;;;;;;;5045978;28;20027;-51
2020/12/22 12:56:38;;;;;;;0.90;0.77;;;;;;;;;;5045467;28;20032;-51
2020/12/22 12:59:04;;;;;;;0.93;0.82;;;;;;;;;;5044878;28;20328;-50
2020/12/22 13:01:30;;;;;;;1.70;1.15;;;;;;;;;;5044925;28;20263;-51
2020/12/22 13:03:56;;;;;;;1.67;1.13;;;;;;;;;;5044927;28;20074;-50
2020/12/22 13:06:23;;;;;;;1.42;1.10;;;;;;;;;;5046333;28;20056;-51
2020/12/22 13:08:49;;;;;;;2.67;1.20;;;;;;;;;;5046029;28;20032;-50
2020/12/22 13:11:15;;;;;;;1.80;1.35;;;;;;;;;;5046884;28;20573;-52
2020/12/22 13:13:45;;;;;;;1.23;1.00;;;;;;;;;;5045926;28;20036;-51
2020/12/22 13:16:11;;;;;;;1.55;1.13;;;;;;;;;;5047170;28;20025;-54
2020/12/22 13:18:38;;;;;;;1.10;0.90;;;;;;;;;;5044935;28;20513;-54
2020/12/22 13:21:04;;;;;;;0.93;0.80;;;;;;;;;;5045536;28;20040;-52
2020/12/22 13:23:30;;;;;;;1.42;1.10;;;;;;;;;;5047031;28;20048;-52
2020/12/22 13:25:56;;;;;;;1.58;1.20;;;;;;;;;;5046638;28;20040;-53
2020/12/22 13:28:22;;;;;;;1.10;0.85;;;;;;;;;;5043189;28;20028;-50
2020/12/22 13:30:48;;;;;;;2.15;1.00;;;;;;;;;;5045053;28;20033;-52
2020/12/22 13:33:14;;;;;;;1.30;1.00;;;;;;;;;;5044876;28;20021;-53
2020/12/22 13:35:40;;;;;;;1.55;1.05;;;;;;;;;;5044059;28;20060;-52
2020/12/22 13:38:06;;;;;;;1.90;1.10;;;;;;;;;;5043962;28;20056;-51
2020/12/22 13:40:33;;;;;;;1.25;0.95;;;;;;;;;;5045886;28;20024;-54
2020/12/22 13:42:59;;;;;;;1.35;1.00;;;;;;;;;;5044612;28;20401;-52
2020/12/22 13:45:25;;;;;;;1.10;0.95;;;;;;;;;;5045409;28;20037;-54
2020/12/22 13:47:51;;;;;;;1.70;1.20;;;;;;;;;;5045568;28;20083;-52
2020/12/22 13:50:17;;;;;;;1.60;1.00;;;;;;;;;;5045698;28;20033;-50
2020/12/22 13:52:44;;;;;;;1.17;0.98;;;;;;;;;;5045853;28;20464;-52
2020/12/22 13:55:13;;;;;;;1.70;1.27;;;;;;;;;;5045799;28;20108;-50
2020/12/22 13:57:40;;;;;;;1.88;1.50;;;;;;;;;;5045363;28;20307;-53
2020/12/22 14:00:08;;;;;;;3.33;2.05;;;;;;;;;;5045249;28;20058;-54
2020/12/22 14:02:35;;;;;;;2.95;2.20;;;;;;;;;;5044622;28;20036;-50
2020/12/22 14:05:02;;;;;;;3.65;2.45;;;;;;;;;;5045721;28;20037;-53
2020/12/22 14:07:29;;;;;;;2.80;2.05;;;;;;;;;;5045446;28;20112;-53
2020/12/22 14:09:55;;;;;;;3.92;2.05;;;;;;;;;;5044269;28;20032;-52
2020/12/22 14:12:21;;;;;;;2.60;1.90;;;;;;;;;;5044908;28;20096;-51
2020/12/22 14:14:48;;;;;;;2.47;1.70;;;;;;;;;;5044865;28;20036;-53
2020/12/22 14:17:14;;;;;;;3.30;1.95;;;;;;;;;;5045669;28;20083;-52
2020/12/22 14:19:40;;;;;;;2.25;1.83;;;;;;;;;;5044902;28;20036;-51
2020/12/22 14:22:06;;;;;;;2.47;1.60;;;;;;;;;;5044926;28;20036;-52
2020/12/22 14:24:32;;;;;;;2.58;1.95;;;;;;;;;;5044975;28;20668;-51
2020/12/22 14:26:58;;;;;;;1.90;1.50;;;;;;;;;;5045214;28;20457;-53
2020/12/22 14:29:24;;;;;;;2.60;1.80;;;;;;;;;;5045116;28;20025;-48
2020/12/22 14:31:50;;;;;;;2.35;1.70;;;;;;;;;;5044623;28;20029;-53
2020/12/22 14:34:17;;;;;;;2.47;1.65;;;;;;;;;;5044778;28;20025;-50
2020/12/22 14:36:43;;;;;;;2.30;1.67;;;;;;;;;;5045291;28;20028;-48
2020/12/22 14:39:09;;;;;;;2.90;1.80;;;;;;;;;;5044706;28;20415;-50
2020/12/22 14:41:36;;;;;;;3.42;1.90;;;;;;;;;;5044595;28;20039;-51